This is the latest recevied weather packets stored in our database for station/object W2GLD-13. If no packets are shown the sender has not sent any weather packets the latest 10 day(s).
| Time | Temp. | Humidity | Pressure | Rain* | Wind** | Luminosity | Snow |
|---|---|---|---|---|---|---|---|
| 1777976105 | 13.33° C | 87% | 999.4 hPa | 0 mm | - | - | - |
| 1777975205 | 13.33° C | 86% | 999.3 hPa | 0 mm | - | - | - |
| 1777974305 | 13.33° C | 86% | 999.3 hPa | 0 mm | - | - | - |
| 1777973405 | 13.33° C | 86% | 999.3 hPa | 0 mm | - | - | - |
| 1777972506 | 13.33° C | 86% | 999.3 hPa | 0 mm | - | - | - |
| 1777971606 | 13.33° C | 90% | 998.2 hPa | 0 mm | - | - | - |
| 1777970706 | 13.33° C | 90% | 998.2 hPa | 0 mm | - | - | - |
| 1777969805 | 13.33° C | 90% | 998.2 hPa | 0 mm | - | - | - |
| 1777968905 | 13.33° C | 90% | 998.2 hPa | 0 mm | - | - | - |
| 1777968005 | 13.89° C | 89% | 997.9 hPa | 0 mm | - | - | - |
| 1777967105 | 13.89° C | 89% | 997.9 hPa | 0 mm | - | - | - |
| 1777966205 | 13.89° C | 89% | 997.9 hPa | 0 mm | - | - | - |
| 1777965305 | 13.89° C | 89% | 997.9 hPa | 0 mm | - | - | - |
| 1777964406 | 13.89° C | 86% | 998.7 hPa | 0 mm | - | - | - |
| 1777963506 | 13.89° C | 86% | 998.7 hPa | 0 mm | - | - | - |
| 1777962606 | 13.89° C | 86% | 998.7 hPa | 0 mm | - | - | - |
| 1777961705 | 13.89° C | 86% | 998.7 hPa | 0 mm | - | - | - |
| 1777960806 | 15° C | 88% | 998.1 hPa | 7.62 mm | - | - | - |
| 1777959905 | 15° C | 88% | 998.1 hPa | 7.62 mm | - | - | - |
| 1777959005 | 15° C | 88% | 998.1 hPa | 7.62 mm | - | - | - |
| 1777958105 | 15° C | 88% | 998.1 hPa | 7.62 mm | - | - | - |
| 1777957205 | 18.89° C | 68% | 999.1 hPa | 0 mm | - | - | - |
| 1777956306 | 18.89° C | 68% | 999.1 hPa | 0 mm | - | - | - |
| 1777955406 | 18.89° C | 68% | 999.1 hPa | 0 mm | - | - | - |
| 1777954506 | 18.89° C | 68% | 999.1 hPa | 0 mm | - | - | - |
* Rain latest hour (hover to see other rain measurements)
** Current wind speed in m/s (hover to see current wind gust speed)